createdAt,value
2017-04-05T00:00:39.838Z,0
2017-04-05T00:01:41.110Z,0
2017-04-05T00:02:42.377Z,0
2017-04-05T00:03:43.643Z,0
2017-04-05T00:04:44.900Z,0
2017-04-05T00:05:46.211Z,0
2017-04-05T00:06:47.470Z,0
2017-04-05T00:07:48.731Z,0
2017-04-05T00:08:49.970Z,0
2017-04-05T00:09:51.213Z,0
2017-04-05T00:10:52.500Z,0
2017-04-05T00:11:53.804Z,0
2017-04-05T00:12:55.058Z,0
2017-04-05T00:13:56.303Z,0
2017-04-05T00:14:57.554Z,0
2017-04-05T00:15:58.813Z,0
2017-04-05T00:17:00.125Z,0
2017-04-05T00:18:01.418Z,0
2017-04-05T00:19:02.669Z,0
2017-04-05T00:20:03.969Z,0
2017-04-05T00:21:05.206Z,0
2017-04-05T00:22:06.437Z,0
2017-04-05T00:23:07.681Z,0
2017-04-05T00:24:08.987Z,0
2017-04-05T00:25:10.315Z,0
2017-04-05T00:26:11.561Z,0
2017-04-05T00:27:12.790Z,0
2017-04-05T00:28:14.025Z,0
2017-04-05T00:29:15.275Z,0
2017-04-05T00:30:16.523Z,0
2017-04-05T00:31:17.795Z,0
2017-04-05T00:32:19.055Z,0
2017-04-05T00:33:20.267Z,0
2017-04-05T00:34:21.552Z,0
2017-04-05T00:35:22.750Z,0
2017-04-05T00:36:23.986Z,0
2017-04-05T00:37:25.241Z,0
2017-04-05T00:38:26.486Z,0
2017-04-05T00:39:27.733Z,0
2017-04-05T00:40:28.964Z,0
2017-04-05T00:41:30.207Z,0
2017-04-05T00:42:31.446Z,0
2017-04-05T00:43:32.671Z,0
2017-04-05T00:44:33.909Z,0
2017-04-05T00:45:35.187Z,0
2017-04-05T00:46:36.406Z,0
2017-04-05T00:47:37.649Z,0
2017-04-05T00:48:38.890Z,0
2017-04-05T00:49:40.129Z,0
2017-04-05T00:50:41.436Z,0
2017-04-05T00:51:42.665Z,0
2017-04-05T00:52:43.995Z,0
2017-04-05T00:53:45.228Z,0
2017-04-05T00:54:46.460Z,0
2017-04-05T00:55:47.693Z,0
2017-04-05T00:56:49.007Z,0
2017-04-05T00:57:50.333Z,0
2017-04-05T00:58:51.566Z,0
2017-04-05T00:59:52.798Z,0
2017-04-05T01:00:54.088Z,0
2017-04-05T01:01:55.445Z,0
2017-04-05T01:02:56.759Z,0
2017-04-05T01:03:58.103Z,0
2017-04-05T01:04:59.357Z,0
2017-04-05T01:06:00.604Z,0
2017-04-05T01:07:01.833Z,0
2017-04-05T01:08:03.071Z,0
2017-04-05T01:09:04.349Z,0
2017-04-05T01:10:05.637Z,0
2017-04-05T01:11:06.895Z,0
2017-04-05T01:12:08.128Z,0
2017-04-05T01:13:09.365Z,0
2017-04-05T01:14:10.606Z,0
2017-04-05T01:15:11.857Z,0
2017-04-05T01:16:13.204Z,0
2017-04-05T01:17:14.433Z,0
2017-04-05T01:18:15.672Z,0
2017-04-05T01:19:16.921Z,0
2017-04-05T01:20:18.165Z,0
2017-04-05T01:21:19.449Z,0
2017-04-05T01:22:20.691Z,0
2017-04-05T01:23:21.955Z,0
2017-04-05T01:24:23.198Z,0
2017-04-05T01:25:24.427Z,0
2017-04-05T01:26:25.773Z,0
2017-04-05T01:27:27.020Z,0
2017-04-05T01:28:28.242Z,0
2017-04-05T01:29:29.491Z,0
2017-04-05T01:30:30.730Z,0
2017-04-05T01:31:31.982Z,0
2017-04-05T01:32:33.199Z,0
2017-04-05T01:33:34.447Z,0
2017-04-05T01:34:35.713Z,0
2017-04-05T01:35:36.947Z,0
2017-04-05T01:36:38.224Z,0
2017-04-05T01:37:39.458Z,0
2017-04-05T01:38:40.741Z,0
2017-04-05T01:39:42.085Z,0
2017-04-05T01:40:43.320Z,0
2017-04-05T01:41:44.621Z,0
2017-04-05T01:42:45.862Z,0
2017-04-05T01:43:47.125Z,0
2017-04-05T01:44:48.379Z,0
2017-04-05T01:45:49.707Z,0
2017-04-05T01:46:50.937Z,0
2017-04-05T01:47:52.266Z,0
2017-04-05T01:48:53.632Z,0
2017-04-05T01:49:54.848Z,0
2017-04-05T01:50:56.085Z,0
2017-04-05T01:51:57.330Z,0
2017-04-05T01:52:58.587Z,0
2017-04-05T01:53:59.822Z,0
2017-04-05T01:55:01.050Z,0
2017-04-05T01:56:02.282Z,0
2017-04-05T01:57:03.509Z,0
2017-04-05T01:58:04.748Z,0
2017-04-05T01:59:06.052Z,0
2017-04-05T02:00:07.345Z,0
2017-04-05T02:01:08.593Z,0
2017-04-05T02:02:09.922Z,0
2017-04-05T02:03:11.157Z,0
2017-04-05T02:04:12.409Z,0
2017-04-05T02:05:13.688Z,0
2017-04-05T02:06:14.920Z,0
2017-04-05T02:07:16.181Z,0
2017-04-05T02:08:17.419Z,0
2017-04-05T02:09:18.656Z,0
2017-04-05T02:10:19.979Z,0
2017-04-05T02:11:21.207Z,0
2017-04-05T02:12:22.447Z,0
2017-04-05T02:13:23.745Z,0
2017-04-05T02:14:24.986Z,0
2017-04-05T02:15:26.231Z,0
2017-04-05T02:16:27.476Z,0
2017-04-05T02:17:28.790Z,0
2017-04-05T02:18:30.033Z,0
2017-04-05T02:19:31.300Z,0
2017-04-05T02:20:32.537Z,0
2017-04-05T02:21:33.912Z,0
2017-04-05T02:22:35.136Z,0
2017-04-05T02:23:36.384Z,0
2017-04-05T02:24:37.625Z,0
2017-04-05T02:25:38.864Z,0
2017-04-05T02:26:40.093Z,0
2017-04-05T02:27:41.342Z,0
2017-04-05T02:28:42.583Z,0
2017-04-05T02:29:43.922Z,0
2017-04-05T02:30:45.173Z,0
2017-04-05T02:31:46.418Z,0
2017-04-05T02:32:47.661Z,0
2017-04-05T02:33:48.902Z,0
2017-04-05T02:34:50.148Z,0
2017-04-05T02:35:51.393Z,0
2017-04-05T02:36:52.651Z,0
2017-04-05T02:37:53.964Z,0
2017-04-05T02:38:55.193Z,0
2017-04-05T02:39:56.427Z,0
2017-04-05T02:40:57.653Z,0
2017-04-05T02:41:58.894Z,0
2017-04-05T02:43:00.178Z,0
2017-04-05T02:44:01.485Z,0
2017-04-05T02:45:02.737Z,0
2017-04-05T02:46:04.016Z,0
2017-04-05T02:47:05.246Z,0
2017-04-05T02:48:06.484Z,0
2017-04-05T02:49:07.776Z,0
2017-04-05T02:50:09.031Z,0
2017-04-05T02:51:10.268Z,0
2017-04-05T02:52:11.523Z,0
2017-04-05T02:53:12.742Z,0
2017-04-05T02:54:13.979Z,0
2017-04-05T02:55:15.221Z,0
2017-04-05T02:56:16.487Z,0
2017-04-05T02:57:17.714Z,0
2017-04-05T02:58:18.955Z,0
2017-04-05T02:59:20.250Z,0
2017-04-05T03:00:21.496Z,0
2017-04-05T03:01:22.779Z,0
2017-04-05T03:02:24.067Z,0
2017-04-05T03:03:25.306Z,0
2017-04-05T03:04:26.573Z,0
2017-04-05T03:05:27.820Z,0
2017-04-05T03:06:29.053Z,0
2017-04-05T03:07:30.302Z,0
2017-04-05T03:08:31.559Z,0
2017-04-05T03:09:32.799Z,0
2017-04-05T03:10:34.101Z,0
2017-04-05T03:11:35.328Z,0
2017-04-05T03:12:36.559Z,0
2017-04-05T03:13:37.794Z,0
2017-04-05T03:14:39.031Z,0
2017-04-05T03:15:40.411Z,0
2017-04-05T03:16:41.752Z,0
2017-04-05T03:17:43.021Z,0
2017-04-05T03:18:44.204Z,0
2017-04-05T03:19:45.457Z,0
2017-04-05T03:20:46.773Z,0
2017-04-05T03:21:48.028Z,0
2017-04-05T03:22:49.333Z,0
2017-04-05T03:23:50.594Z,0
2017-04-05T03:24:51.845Z,0
2017-04-05T03:25:53.114Z,0
2017-04-05T03:26:54.353Z,0
2017-04-05T03:27:55.616Z,0
2017-04-05T03:28:56.858Z,0
2017-04-05T03:29:58.159Z,0
2017-04-05T03:30:59.373Z,0
2017-04-05T03:32:00.621Z,0
2017-04-05T03:33:01.941Z,0
2017-04-05T03:34:03.105Z,0
2017-04-05T03:35:04.427Z,0
2017-04-05T03:36:05.656Z,0
2017-04-05T03:37:06.894Z,0
2017-04-05T03:38:08.123Z,0
2017-04-05T03:39:09.373Z,0
2017-04-05T03:40:10.633Z,0
2017-04-05T03:41:11.878Z,0
2017-04-05T03:42:13.160Z,0
2017-04-05T03:43:14.372Z,0
2017-04-05T03:44:15.634Z,0
2017-04-05T03:45:16.848Z,0
2017-04-05T03:46:18.115Z,0
2017-04-05T03:47:19.522Z,0
2017-04-05T03:48:20.645Z,0
2017-04-05T03:49:21.914Z,0
2017-04-05T03:50:23.127Z,0
2017-04-05T03:51:24.385Z,0
2017-04-05T03:52:25.625Z,0
2017-04-05T03:53:26.882Z,0
2017-04-05T03:54:28.201Z,0
2017-04-05T03:55:29.588Z,0
2017-04-05T03:56:30.817Z,0
2017-04-05T03:57:32.072Z,0
2017-04-05T03:58:33.341Z,0
2017-04-05T03:59:34.598Z,0
2017-04-05T04:00:35.891Z,0
2017-04-05T04:01:37.125Z,0
2017-04-05T04:02:38.390Z,0
2017-04-05T04:03:39.605Z,0
2017-04-05T04:04:40.932Z,0
2017-04-05T04:05:42.288Z,0
2017-04-05T04:06:43.681Z,0
2017-04-05T04:07:44.941Z,0
2017-04-05T04:08:46.176Z,0
2017-04-05T04:09:47.445Z,0
2017-04-05T04:10:48.710Z,0
2017-04-05T04:11:50.065Z,0
2017-04-05T04:12:51.300Z,0
2017-04-05T04:13:52.521Z,0
2017-04-05T04:14:53.762Z,0
2017-04-05T04:15:54.992Z,0
2017-04-05T04:16:56.232Z,0
2017-04-05T04:17:57.578Z,0
2017-04-05T04:18:58.710Z,0
2017-04-05T04:20:00.020Z,0
2017-04-05T04:21:01.261Z,4
2017-04-05T04:22:02.508Z,0
2017-04-05T04:23:03.746Z,0
2017-04-05T04:24:04.982Z,4
2017-04-05T04:25:06.326Z,4
2017-04-05T04:26:07.621Z,4
2017-04-05T04:27:08.866Z,4
2017-04-05T04:28:10.111Z,4
2017-04-05T04:29:11.344Z,4
2017-04-05T04:30:12.599Z,8
2017-04-05T04:31:13.960Z,8
2017-04-05T04:32:15.199Z,12
2017-04-05T04:33:16.447Z,12
2017-04-05T04:34:17.718Z,16
2017-04-05T04:35:19.046Z,16
2017-04-05T04:36:20.279Z,24
2017-04-05T04:37:21.542Z,28
2017-04-05T04:38:22.777Z,28
2017-04-05T04:39:24.006Z,36
2017-04-05T04:40:25.247Z,40
2017-04-05T04:41:26.492Z,48
2017-04-05T04:42:27.844Z,56
2017-04-05T04:43:29.082Z,64
2017-04-05T04:44:30.298Z,76
2017-04-05T04:45:31.552Z,80
2017-04-05T04:46:32.778Z,96
2017-04-05T04:47:34.015Z,108
2017-04-05T04:48:35.264Z,120
2017-04-05T04:49:36.601Z,136
2017-04-05T04:50:37.840Z,148
2017-04-05T04:51:39.086Z,164
2017-04-05T04:52:40.338Z,180
2017-04-05T04:53:41.581Z,200
2017-04-05T04:54:42.820Z,216
2017-04-05T04:55:44.087Z,228
2017-04-05T04:56:45.436Z,236
2017-04-05T04:57:46.707Z,244
2017-04-05T04:58:47.931Z,252
2017-04-05T04:59:49.164Z,248
2017-04-05T05:00:50.400Z,248
2017-04-05T05:01:51.723Z,244
2017-04-05T05:02:52.958Z,248
2017-04-05T05:03:54.260Z,244
2017-04-05T05:04:55.472Z,248
2017-04-05T05:05:56.701Z,264
2017-04-05T05:06:57.988Z,292
2017-04-05T05:07:59.207Z,316
2017-04-05T05:09:00.471Z,336
2017-04-05T05:10:01.722Z,360
2017-04-05T05:11:02.986Z,396
2017-04-05T05:12:04.227Z,420
2017-04-05T05:13:05.470Z,448
2017-04-05T05:14:06.705Z,500
2017-04-05T05:15:07.982Z,588
2017-04-05T05:16:09.238Z,696
2017-04-05T05:17:10.502Z,816
2017-04-05T05:18:11.851Z,936
2017-04-05T05:19:13.135Z,1056
2017-04-05T05:20:14.357Z,1184
2017-04-05T05:21:15.602Z,1300
2017-04-05T05:22:16.852Z,1416
2017-04-05T05:23:18.124Z,1540
2017-04-05T05:24:19.366Z,1652
2017-04-05T05:25:20.604Z,1776
2017-04-05T05:26:22.054Z,1912
2017-04-05T05:27:23.174Z,2020
2017-04-05T05:28:24.445Z,2068
2017-04-05T05:29:25.662Z,2112
2017-04-05T05:30:26.902Z,2228
2017-04-05T05:31:28.142Z,2388
2017-04-05T05:32:29.405Z,2564
2017-04-05T05:33:30.700Z,2644
2017-04-05T05:34:31.939Z,2524
2017-04-05T05:35:33.201Z,2324
2017-04-05T05:36:34.451Z,2180
2017-04-05T05:37:35.686Z,2092
2017-04-05T05:38:36.932Z,2060
2017-04-05T05:39:38.205Z,2108
2017-04-05T05:40:39.480Z,2204
2017-04-05T05:41:40.743Z,2356
2017-04-05T05:42:42.014Z,2532
2017-04-05T05:43:43.255Z,2624
2017-04-05T05:44:44.492Z,2680
2017-04-05T05:45:45.727Z,2800
2017-04-05T05:46:46.980Z,3092
2017-04-05T05:47:48.305Z,3608
2017-04-05T05:48:49.556Z,4080
2017-04-05T05:49:50.805Z,4396
2017-04-05T05:50:52.045Z,4668
2017-04-05T05:51:53.282Z,4632
2017-04-05T05:52:54.532Z,4492
2017-04-05T05:53:55.831Z,4376
2017-04-05T05:54:57.091Z,3992
2017-04-05T05:55:58.331Z,3428
2017-04-05T05:56:59.568Z,2844
2017-04-05T05:58:00.809Z,2444
2017-04-05T05:59:02.069Z,2088
2017-04-05T06:00:03.294Z,2008
2017-04-05T06:01:04.534Z,2016
2017-04-05T06:02:05.788Z,2032
2017-04-05T06:03:07.024Z,2104
2017-04-05T06:04:08.257Z,2240
2017-04-05T06:05:09.513Z,2388
2017-04-05T06:06:10.761Z,2512
2017-04-05T06:07:12.101Z,2572
2017-04-05T06:08:13.354Z,2608
2017-04-05T06:09:14.605Z,2676
2017-04-05T06:10:15.836Z,2764
2017-04-05T06:11:17.098Z,2852
2017-04-05T06:12:18.394Z,2916
2017-04-05T06:13:19.677Z,2908
2017-04-05T06:14:20.915Z,2904
2017-04-05T06:15:22.172Z,3012
2017-04-05T06:16:23.425Z,3280
2017-04-05T06:17:24.657Z,3676
2017-04-05T06:18:25.916Z,4052
2017-04-05T06:19:27.157Z,4456
2017-04-05T06:20:28.658Z,4920
2017-04-05T06:21:29.899Z,5352
2017-04-05T06:22:31.163Z,5604
2017-04-05T06:23:32.390Z,5804
2017-04-05T06:24:33.789Z,5804
2017-04-05T06:25:35.005Z,5516
2017-04-05T06:26:36.244Z,5312
2017-04-05T06:27:37.487Z,5392
2017-04-05T06:28:38.723Z,5084
2017-04-05T06:29:39.975Z,4872
2017-04-05T06:30:41.217Z,4828
2017-04-05T06:31:42.488Z,5160
2017-04-05T06:32:43.733Z,5560
2017-04-05T06:33:44.968Z,6024
2017-04-05T06:34:46.237Z,6592
2017-04-05T06:35:47.461Z,7204
2017-04-05T06:36:48.707Z,7664
2017-04-05T06:37:49.957Z,7888
2017-04-05T06:38:51.198Z,7932
2017-04-05T06:39:52.451Z,8052
2017-04-05T06:40:53.724Z,8244
2017-04-05T06:41:54.970Z,8508
2017-04-05T06:42:56.210Z,8708
2017-04-05T06:43:57.459Z,9008
2017-04-05T06:44:58.719Z,9224
2017-04-05T06:46:00.000Z,9028
2017-04-05T06:47:01.268Z,8036
2017-04-05T06:48:02.508Z,6912
2017-04-05T06:49:03.747Z,6612
2017-04-05T06:50:05.008Z,6772
2017-04-05T06:51:06.307Z,6984
2017-04-05T06:52:07.612Z,7272
2017-04-05T06:53:08.851Z,7752
2017-04-05T06:54:10.084Z,8092
2017-04-05T06:55:11.311Z,7928
2017-04-05T06:56:12.610Z,7368
2017-04-05T06:57:13.868Z,6676
2017-04-05T06:58:15.117Z,6224
2017-04-05T06:59:16.354Z,6008
2017-04-05T07:00:17.570Z,5712
2017-04-05T07:01:18.848Z,5268
2017-04-05T07:02:20.103Z,4856
2017-04-05T07:03:21.342Z,4696
2017-04-05T07:04:22.703Z,4720
2017-04-05T07:05:23.981Z,4724
2017-04-05T07:06:25.212Z,4516
2017-04-05T07:07:26.451Z,4168
2017-04-05T07:08:27.691Z,3952
2017-04-05T07:09:28.939Z,3940
2017-04-05T07:10:30.188Z,4036
2017-04-05T07:11:31.424Z,4188
2017-04-05T07:12:32.669Z,4336
2017-04-05T07:13:33.926Z,4528
2017-04-05T07:14:35.161Z,4708
2017-04-05T07:15:36.448Z,4844
2017-04-05T07:16:37.677Z,4984
2017-04-05T07:17:38.937Z,4520
2017-04-05T07:18:40.219Z,4656
2017-04-05T07:19:41.481Z,4152
2017-04-05T07:20:42.693Z,3988
2017-04-05T07:21:43.993Z,3708
2017-04-05T07:22:45.233Z,3528
2017-04-05T07:23:46.486Z,3784
2017-04-05T07:24:47.775Z,4076
2017-04-05T07:25:49.011Z,3832
2017-04-05T07:26:50.291Z,3916
2017-04-05T07:27:51.495Z,4488
2017-04-05T07:28:52.853Z,5108
2017-04-05T07:29:54.096Z,5864
2017-04-05T07:30:55.384Z,6808
2017-04-05T07:31:56.622Z,6692
2017-04-05T07:32:57.881Z,7056
2017-04-05T07:33:59.125Z,7576
2017-04-05T07:35:00.477Z,7668
2017-04-05T07:36:01.717Z,7996
2017-04-05T07:37:03.010Z,7960
2017-04-05T07:38:04.296Z,8052
2017-04-05T07:39:05.532Z,8348
2017-04-05T07:40:06.809Z,9028
2017-04-05T07:41:08.047Z,9656
2017-04-05T07:42:09.282Z,8908
2017-04-05T07:43:10.555Z,8716
2017-04-05T07:44:11.832Z,9152
2017-04-05T07:45:13.043Z,9652
2017-04-05T07:46:14.296Z,8608
2017-04-05T07:47:15.540Z,8912
2017-04-05T07:48:16.806Z,9632
2017-04-05T07:49:18.169Z,9420
2017-04-05T07:50:19.386Z,11020
2017-04-05T07:51:20.633Z,12844
2017-04-05T07:52:21.884Z,14720
2017-04-05T07:53:23.107Z,17984
2017-04-05T07:54:24.352Z,20320
2017-04-05T07:55:25.616Z,22176
2017-04-05T07:56:26.864Z,22112
2017-04-05T07:57:28.122Z,20032
2017-04-05T07:58:29.361Z,20288
2017-04-05T07:59:30.619Z,20224
2017-04-05T08:00:31.850Z,21440
2017-04-05T08:01:33.083Z,25344
2017-04-05T08:02:34.350Z,22080
2017-04-05T08:03:35.622Z,23232
2017-04-05T08:04:36.856Z,27392
2017-04-05T08:05:38.122Z,28096
2017-04-05T08:06:39.360Z,23776
2017-04-05T08:07:40.603Z,20448
2017-04-05T08:08:41.911Z,18912
2017-04-05T08:09:43.154Z,17024
2017-04-05T08:10:44.417Z,14140
2017-04-05T08:11:45.666Z,11264
2017-04-05T08:12:46.917Z,9132
2017-04-05T08:13:48.172Z,7808
2017-04-05T08:14:49.415Z,7100
2017-04-05T08:15:50.724Z,6976
2017-04-05T08:16:51.968Z,7092
2017-04-05T08:17:53.216Z,7016
2017-04-05T08:18:54.457Z,6876
2017-04-05T08:19:55.692Z,6964
2017-04-05T08:20:56.949Z,7356
2017-04-05T08:21:58.191Z,7652
2017-04-05T08:22:59.443Z,7504
2017-04-05T08:24:00.702Z,7136
2017-04-05T08:25:01.959Z,6856
2017-04-05T08:26:03.201Z,6764
2017-04-05T08:27:04.437Z,6792
2017-04-05T08:28:05.774Z,6940
2017-04-05T08:29:06.931Z,7120
2017-04-05T08:30:08.189Z,7440
2017-04-05T08:31:09.440Z,7784
2017-04-05T08:32:10.707Z,8228
2017-04-05T08:33:11.923Z,8252
2017-04-05T08:34:13.165Z,7868
2017-04-05T08:35:14.479Z,7448
2017-04-05T08:36:15.739Z,7432
2017-04-05T08:37:16.959Z,8212
2017-04-05T08:38:18.211Z,8484
2017-04-05T08:39:19.472Z,9160
2017-04-05T08:40:20.696Z,9792
2017-04-05T08:41:21.984Z,10184
2017-04-05T08:42:23.219Z,9756
2017-04-05T08:43:24.512Z,9088
2017-04-05T08:44:25.753Z,8740
2017-04-05T08:45:27.003Z,8476
2017-04-05T08:46:28.247Z,7896
2017-04-05T08:47:29.557Z,7848
2017-04-05T08:48:30.761Z,7976
2017-04-05T08:49:31.989Z,8116
2017-04-05T08:50:33.242Z,8480
2017-04-05T08:51:34.468Z,9028
2017-04-05T08:52:35.711Z,9024
2017-04-05T08:53:37.054Z,8924
2017-04-05T08:54:38.477Z,9476
2017-04-05T08:55:39.706Z,10356
2017-04-05T08:56:40.955Z,11268
2017-04-05T08:57:42.202Z,12336
2017-04-05T08:58:43.449Z,12900
2017-04-05T08:59:44.805Z,12652
2017-04-05T09:00:46.057Z,11928
2017-04-05T09:01:47.320Z,11800
2017-04-05T09:02:48.537Z,11388
2017-04-05T09:03:49.776Z,11208
2017-04-05T09:04:51.038Z,11440
2017-04-05T09:05:52.306Z,11864
2017-04-05T09:06:53.582Z,13100
2017-04-05T09:07:54.820Z,14848
2017-04-05T09:08:56.093Z,16508
2017-04-05T09:09:57.330Z,17312
2017-04-05T09:10:58.573Z,17920
2017-04-05T09:11:59.956Z,19040
2017-04-05T09:13:01.179Z,26912
2017-04-05T09:14:02.419Z,24480
2017-04-05T09:15:03.665Z,30656
2017-04-05T09:16:04.936Z,28512
2017-04-05T09:17:06.172Z,22112
2017-04-05T09:18:07.406Z,33888
2017-04-05T09:19:08.739Z,38368
2017-04-05T09:20:09.983Z,35360
2017-04-05T09:21:11.224Z,29152
2017-04-05T09:22:12.471Z,25216
2017-04-05T09:23:13.752Z,40480
2017-04-05T09:24:14.998Z,28160
2017-04-05T09:25:16.276Z,36992
2017-04-05T09:26:17.620Z,31936
2017-04-05T09:27:18.836Z,31616
2017-04-05T09:28:20.095Z,41152
2017-04-05T09:29:21.336Z,40832
2017-04-05T09:30:22.583Z,42432
2017-04-05T09:31:23.847Z,42720
2017-04-05T09:32:25.083Z,45600
2017-04-05T09:33:26.363Z,44224
2017-04-05T09:34:27.621Z,45856
2017-04-05T09:35:28.870Z,44064
2017-04-05T09:36:30.220Z,44128
2017-04-05T09:37:31.448Z,43552
2017-04-05T09:38:32.715Z,40256
2017-04-05T09:39:33.978Z,37888
2017-04-05T09:40:35.223Z,26400
2017-04-05T09:41:36.465Z,35808
2017-04-05T09:42:37.730Z,38688
2017-04-05T09:43:39.059Z,50624
2017-04-05T09:44:40.485Z,53376
2017-04-05T09:45:41.723Z,46368
2017-04-05T09:46:42.969Z,48416
2017-04-05T09:47:44.236Z,50848
2017-04-05T09:48:45.510Z,46816
2017-04-05T09:49:46.851Z,42432
2017-04-05T09:50:48.117Z,37216
2017-04-05T09:51:49.344Z,32768
2017-04-05T09:52:50.588Z,39072
2017-04-05T09:53:51.843Z,42016
2017-04-05T09:54:53.109Z,38240
2017-04-05T09:55:54.345Z,33792
2017-04-05T09:56:55.662Z,32896
2017-04-05T09:57:56.912Z,34752
2017-04-05T09:58:58.225Z,44704
2017-04-05T09:59:59.477Z,47392
2017-04-05T10:01:00.736Z,40640
2017-04-05T10:02:02.118Z,39296
2017-04-05T10:03:03.388Z,52416
2017-04-05T10:04:04.637Z,50016
2017-04-05T10:05:05.897Z,49280
2017-04-05T10:06:07.163Z,52032
2017-04-05T10:07:08.412Z,51104
2017-04-05T10:08:09.729Z,52608
2017-04-05T10:09:10.982Z,52640
2017-04-05T10:10:12.361Z,59456
2017-04-05T10:11:13.590Z,63200
2017-04-05T10:12:14.866Z,59584
2017-04-05T10:13:16.150Z,65248
2017-04-05T10:14:17.423Z,62976
2017-04-05T10:15:18.683Z,54976
2017-04-05T10:16:19.956Z,50976
2017-04-05T10:17:21.221Z,59840
2017-04-05T10:18:22.456Z,63296
2017-04-05T10:19:23.855Z,23648
2017-04-05T10:20:25.111Z,20032
2017-04-05T10:21:26.365Z,17120
2017-04-05T10:22:27.636Z,19712
2017-04-05T10:23:28.869Z,26496
2017-04-05T10:24:30.132Z,59200
2017-04-05T10:25:31.382Z,54336
2017-04-05T10:26:32.626Z,22144
2017-04-05T10:27:33.979Z,57664
2017-04-05T10:28:35.249Z,63072
2017-04-05T10:29:36.491Z,62336
2017-04-05T10:30:37.796Z,55232
2017-04-05T10:31:39.025Z,31776
2017-04-05T10:32:40.296Z,54176
2017-04-05T10:33:41.568Z,53920
2017-04-05T10:34:42.849Z,39584
2017-04-05T10:35:44.120Z,16992
2017-04-05T10:36:45.352Z,17440
2017-04-05T10:37:46.669Z,18816
2017-04-05T10:38:47.925Z,14800
2017-04-05T10:39:49.175Z,17728
2017-04-05T10:40:50.428Z,33696
2017-04-05T10:41:51.675Z,15084
2017-04-05T10:42:52.937Z,24224
2017-04-05T10:43:54.184Z,15356
2017-04-05T10:44:55.459Z,17472
2017-04-05T10:45:56.731Z,22720
2017-04-05T10:46:58.119Z,20192
2017-04-05T10:47:59.350Z,18272
2017-04-05T10:49:00.601Z,18496
2017-04-05T10:50:01.861Z,20896
2017-04-05T10:51:03.101Z,16928
2017-04-05T10:52:04.369Z,16704
2017-04-05T10:53:05.617Z,15696
2017-04-05T10:54:06.872Z,15008
2017-04-05T10:55:08.163Z,14312
2017-04-05T10:56:09.391Z,12252
2017-04-05T10:57:10.685Z,13172
2017-04-05T10:58:11.951Z,15048
2017-04-05T10:59:13.222Z,13592
2017-04-05T11:00:14.489Z,12960
2017-04-05T11:01:15.711Z,17152
2017-04-05T11:02:16.998Z,17408
2017-04-05T11:03:18.272Z,18336
2017-04-05T11:04:19.538Z,16220
2017-04-05T11:05:20.795Z,12240
2017-04-05T11:06:22.048Z,11576
2017-04-05T11:07:23.292Z,11404
2017-04-05T11:08:24.540Z,11404
2017-04-05T11:09:25.829Z,11852
2017-04-05T11:10:27.189Z,11268
2017-04-05T11:11:28.430Z,11272
2017-04-05T11:12:29.668Z,10684
2017-04-05T11:13:30.908Z,11804
2017-04-05T11:14:32.188Z,13488
2017-04-05T11:15:33.411Z,12476
2017-04-05T11:16:34.715Z,10208
2017-04-05T11:17:35.973Z,11004
2017-04-05T11:18:37.216Z,12644
2017-04-05T11:19:38.463Z,11744
2017-04-05T11:20:39.702Z,11456
2017-04-05T11:21:41.017Z,11844
2017-04-05T11:22:42.261Z,12432
2017-04-05T11:23:43.506Z,12700
2017-04-05T11:24:44.750Z,14480
2017-04-05T11:25:46.010Z,15736
2017-04-05T11:26:47.239Z,15668
2017-04-05T11:27:48.519Z,14792
2017-04-05T11:28:49.775Z,16076
2017-04-05T11:29:51.022Z,15380
2017-04-05T11:30:52.285Z,13344
2017-04-05T11:31:53.531Z,12844
2017-04-05T11:32:54.761Z,12932
2017-04-05T11:33:56.142Z,13484
2017-04-05T11:34:57.390Z,12444
2017-04-05T11:35:58.642Z,10632
2017-04-05T11:36:59.935Z,9280
2017-04-05T11:38:01.188Z,8960
2017-04-05T11:39:02.417Z,9448
2017-04-05T11:40:03.685Z,8988
2017-04-05T11:41:04.927Z,8268
2017-04-05T11:42:06.184Z,8968
2017-04-05T11:43:07.421Z,9320
2017-04-05T11:44:08.664Z,8436
2017-04-05T11:45:09.905Z,8484
2017-04-05T11:46:11.202Z,10872
2017-04-05T11:47:12.496Z,12160
2017-04-05T11:48:13.767Z,12064
2017-04-05T11:49:14.987Z,12272
2017-04-05T11:50:16.240Z,11444
2017-04-05T11:51:17.489Z,9948
2017-04-05T11:52:18.728Z,8960
2017-04-05T11:53:20.074Z,9512
2017-04-05T11:54:21.314Z,10060
2017-04-05T11:55:22.631Z,10356
2017-04-05T11:56:24.022Z,11932
2017-04-05T11:57:25.260Z,13332
2017-04-05T11:58:26.503Z,14520
2017-04-05T11:59:27.770Z,13052
2017-04-05T12:00:29.010Z,13788
2017-04-05T12:01:30.258Z,12956
2017-04-05T12:02:31.491Z,11024
2017-04-05T12:03:32.784Z,11572
2017-04-05T12:04:34.021Z,11204
2017-04-05T12:05:35.263Z,9880
2017-04-05T12:06:36.496Z,9648
2017-04-05T12:07:37.732Z,9572
2017-04-05T12:08:39.012Z,9884
2017-04-05T12:09:40.348Z,10944
2017-04-05T12:10:41.593Z,13472
2017-04-05T12:11:42.845Z,14460
2017-04-05T12:12:44.089Z,13572
2017-04-05T12:13:45.338Z,12624
2017-04-05T12:14:46.716Z,12256
2017-04-05T12:15:47.976Z,12068
2017-04-05T12:16:49.320Z,11724
2017-04-05T12:17:50.617Z,10588
2017-04-05T12:18:51.853Z,9772
2017-04-05T12:19:53.142Z,9288
2017-04-05T12:20:54.415Z,8412
2017-04-05T12:21:55.665Z,8304
2017-04-05T12:22:56.889Z,7792
2017-04-05T12:23:58.231Z,7412
2017-04-05T12:24:59.474Z,7912
2017-04-05T12:26:00.718Z,8372
2017-04-05T12:27:01.966Z,7552
2017-04-05T12:28:03.225Z,6424
2017-04-05T12:29:04.473Z,6128
2017-04-05T12:30:05.712Z,6204
2017-04-05T12:31:06.953Z,6616
2017-04-05T12:32:08.201Z,8004
2017-04-05T12:33:09.428Z,10512
2017-04-05T12:34:10.687Z,13484
2017-04-05T12:35:11.911Z,13932
2017-04-05T12:36:13.227Z,11264
2017-04-05T12:37:14.486Z,9940
2017-04-05T12:38:15.737Z,9536
2017-04-05T12:39:16.974Z,8976
2017-04-05T12:40:18.216Z,8388
2017-04-05T12:41:19.464Z,8596
2017-04-05T12:42:20.711Z,8904
2017-04-05T12:44:42.853Z,10016
2017-04-05T12:45:44.114Z,8764
2017-04-05T12:46:45.345Z,8724
2017-04-05T12:47:46.607Z,8420
2017-04-05T12:48:47.873Z,8828
2017-04-05T12:49:49.215Z,10124
2017-04-05T12:50:50.476Z,12560
2017-04-05T12:51:51.718Z,13108
2017-04-05T12:52:52.955Z,11680
2017-04-05T12:53:54.325Z,10920
2017-04-05T12:54:55.625Z,11572
2017-04-05T12:55:56.861Z,12196
2017-04-05T12:56:58.116Z,12116
2017-04-05T12:57:59.359Z,11636
2017-04-05T12:59:00.602Z,11328
2017-04-05T13:00:01.841Z,11152
2017-04-05T13:01:03.098Z,11188
2017-04-05T13:02:04.347Z,11156
2017-04-05T13:03:05.586Z,10660
2017-04-05T13:04:06.822Z,10436
2017-04-05T13:05:08.076Z,10656
2017-04-05T13:06:09.363Z,10732
2017-04-05T13:07:10.623Z,10672
2017-04-05T13:08:11.901Z,11004
2017-04-05T13:09:13.114Z,11792
2017-04-05T13:10:14.377Z,12344
2017-04-05T13:11:15.601Z,12448
2017-04-05T13:12:16.848Z,12164
2017-04-05T13:13:18.128Z,12220
2017-04-05T13:14:19.357Z,12364
2017-04-05T13:15:20.618Z,12080
2017-04-05T13:16:21.856Z,11208
2017-04-05T13:17:23.114Z,10096
2017-04-05T13:18:24.363Z,9036
2017-04-05T13:19:25.611Z,8832
2017-04-05T13:20:26.868Z,8764
2017-04-05T13:21:28.119Z,9600
2017-04-05T13:22:29.389Z,10432
2017-04-05T13:23:30.617Z,10120
2017-04-05T13:24:31.862Z,10456
2017-04-05T13:25:33.111Z,10680
2017-04-05T13:26:34.327Z,9504
2017-04-05T13:27:35.574Z,9184
2017-04-05T13:28:36.811Z,8692
2017-04-05T13:29:38.102Z,8992
2017-04-05T13:30:39.373Z,9364
2017-04-05T13:31:40.607Z,9760
2017-04-05T13:32:41.850Z,9632
2017-04-05T13:33:43.146Z,8752
2017-04-05T13:34:44.391Z,8808
2017-04-05T13:35:45.642Z,8576
2017-04-05T13:36:46.893Z,8356
2017-04-05T13:37:48.136Z,8996
2017-04-05T13:38:49.379Z,10668
2017-04-05T13:39:50.640Z,11596
2017-04-05T13:40:51.884Z,10984
2017-04-05T13:41:53.140Z,10412
2017-04-05T13:42:54.441Z,10568
2017-04-05T13:43:55.667Z,11508
2017-04-05T13:44:56.931Z,11528
2017-04-05T13:45:58.254Z,10632
2017-04-05T13:46:59.426Z,10628
2017-04-05T13:48:00.690Z,11268
2017-04-05T13:49:01.917Z,11872
2017-04-05T13:50:03.189Z,11980
2017-04-05T13:51:04.435Z,11308
2017-04-05T13:52:05.681Z,10716
2017-04-05T13:53:06.965Z,10340
2017-04-05T13:54:08.212Z,10228
2017-04-05T13:55:09.451Z,10444
2017-04-05T13:56:10.787Z,10424
2017-04-05T13:57:12.010Z,11040